Centralia, Texas
Current Conditions -  °F | °C
As of 2:38 AM on Sunday 23 Nov 2014 (Local Time) from KLFK Reporting Station
Moderate Rain Moderate Rain  
Wind Chill: 66°   Ceiling: 1600
Heat Index: 66°   Visibility: 4mi
Dew Point: 63°   Wind: 6mph
Humidity: 90%   Direction: 110°ESE
Pressure: 29.66"   Gusts: NA
Location:  31.26°N, 95.04°W
Report Text: KLFK 230838Z AUTO 11005KT 4SM RA BR SCT008 OVC016 19/17 A2966 RMK AO2 P0008 T01890172
Loading
Personal Weather Stations






























Interactive Weather Map New forecast layout! Learn more

10-Day Weather Forecast

Advertisements
Track Severe Weather on mobile